METAR Data
IDs: Format: Raw Decoded Include TAF

Data at: 1904 UTC 25 Oct 2021

LSZR 251850Z AUTO VRB01KT 9999 NCD 06/05 Q1021